Have a Safe July 4th! 

Flight Track Log - Related Links

Times and Time Zones

All times are in EDT time to prevent confusion due to time zone crossing. See the N44VS flight status page for this flight to view local times or setup timezone preferences in your user account.

Time Position Orientation Groundspeed Altitude Reporting Facility
EDT Latitude Longitude Course Direction KTS MPH feet Rate Location/Type
Fri 09:44:10 PM 38.4225 -121.8431 149° Southeast 225 259 5,800  Level Oakland Center
Fri 09:45:12 PM 38.3669 -121.7783 138° Southeast 262 302 5,900 1,122 Climbing Oakland Center
Fri 09:46:13 PM 38.3108 -121.7175 140° Southeast 263 303 8,100 2,213 Climbing Oakland Center
Fri 09:47:14 PM 38.2528 -121.6628 143° Southeast 265 305 10,400 2,066 Climbing Oakland Center
Fri 09:48:00 PM 38.1457 -121.5662 149° Southeast  Level Estimated
Fri 09:48:15 PM 38.1817 -121.6450 169° South 265 305 12,300  Level Oakland Center
Fri 09:49:00 PM 38.0734 -121.5181 149° Southeast  Level Estimated
Fri 09:49:16 PM 38.1036 -121.6206 166° South 268 308 14,400  Level Oakland Center
Fri 09:50:18 PM 38.0289 -121.5972 166° South 273 314 16,300 1,805 Climbing Oakland Center
Fri 09:51:19 PM 37.9547 -121.5711 164° South 275 316 18,100 1,967 Climbing Oakland Center
Fri 09:52:20 PM 37.8728 -121.5394 163° South 271 312 20,300 1,869 Climbing Oakland Center
Fri 09:53:21 PM 37.8008 -121.5119 163° South 271 312 21,900 1,512 Climbing Oakland Center
Fri 09:54:23 PM 37.7272 -121.4758 159° South 271 312 23,400 1,317 Climbing Oakland Center
Fri 09:55:24 PM 37.6561 -121.4236 150° Southeast 292 336 24,600 1,131 Climbing Oakland Center
Fri 09:56:25 PM 37.5867 -121.3786 153° Southeast 294 338 25,700 1,073 Climbing Oakland Center
Fri 09:57:27 PM 37.5147 -121.3286 151° Southeast 295 339 26,800 976 Climbing Oakland Center
Fri 09:58:28 PM 37.4397 -121.2764 151° Southeast 302 348 27,700 787 Climbing Oakland Center
Fri 09:59:29 PM 37.3625 -121.2233 151° Southeast 312 359 28,400 590 Climbing Oakland Center
Fri 10:00:30 PM 37.2792 -121.1675 152° Southeast 324 373 28,900 293 Climbing Oakland Center
Fri 10:01:32 PM 37.1961 -121.1089 151° Southeast 338 389 29,000 49 Climbing Oakland Center
Fri 10:02:33 PM 37.1078 -121.0494 152° Southeast 359 413 29,000  Level Oakland Center
Fri 10:03:34 PM 36.9986 -120.9753 152° Southeast 371 427 29,000  Level Oakland Center
Fri 10:04:35 PM 36.9067 -120.9117 151° Southeast 376 433 29,000 -49 Level Oakland Center
Fri 10:05:37 PM 36.8153 -120.8500 152° Southeast 380 437 28,900 -49 Descending Oakland Center
Fri 10:06:38 PM 36.7203 -120.7875 152° Southeast 383 441 28,900 49 Level Oakland Center
Fri 10:07:39 PM 36.6269 -120.7197 150° Southeast 383 441 29,000  Climbing Oakland Center
Fri 10:08:41 PM 36.5319 -120.6542 151° Southeast 387 445 28,900  Descending Oakland Center
Fri 10:09:42 PM 36.4369 -120.5872 150° Southeast 390 449 29,000 49 Climbing Oakland Center
Fri 10:10:43 PM 36.3425 -120.5233 151° Southeast 389 448 29,000 -49 Level Oakland Center
Fri 10:11:44 PM 36.2481 -120.4572 151° Southeast 389 448 28,900 -49 Descending Oakland Center
Fri 10:12:45 PM 36.1344 -120.3794 151° Southeast 389 448 28,900 49 Level Oakland Center
Fri 10:13:47 PM 36.0381 -120.3128 151° Southeast 391 450 29,000  Climbing Oakland Center
Fri 10:14:48 PM 35.9433 -120.2481 151° Southeast 391 450 28,900 -49 Descending Oakland Center
Fri 10:15:49 PM 35.8478 -120.1822 151° Southeast 391 450 28,900  Level Oakland Center
Fri 10:16:50 PM 35.7522 -120.1175 151° Southeast 390 449 28,900  Level Oakland Center
Fri 10:17:52 PM 35.6578 -120.0528 151° Southeast 389 448 28,900 -47 Level Oakland Center
Fri 10:18:59 PM 35.5619 -119.9878 151° Southeast 388 447 28,800 -279 Descending Los Angeles Center
Fri 10:20:01 PM 35.4444 -119.9086 151° Southeast 393 452 28,300 -435 Descending Los Angeles Center
Fri 10:21:03 PM 35.3467 -119.8428 151° Southeast 396 456 27,900 -390 Descending Los Angeles Center
Fri 10:22:04 PM 35.2483 -119.7769 151° Southeast 397 457 27,500 -488 Descending Los Angeles Center
Fri 10:23:06 PM 35.1514 -119.7122 151° Southeast 397 457 26,900 -726 Descending Los Angeles Center
Fri 10:24:08 PM 35.0539 -119.6472 151° Southeast 397 457 26,000 -1,113 Descending Los Angeles Center
Fri 10:25:10 PM 34.9569 -119.5831 152° Southeast 397 457 24,600 -1,548 Descending Los Angeles Center
Fri 10:26:12 PM 34.8650 -119.5206 151° Southeast 383 441 22,800 -2,129 Descending Los Angeles Center
Fri 10:27:14 PM 34.7550 -119.4494 152° Southeast 377 434 20,200 -2,371 Descending Los Angeles Center
Fri 10:28:16 PM 34.6717 -119.3939 151° Southeast 347 399 17,900 -2,176 Descending Los Angeles Center
Fri 10:28:45 PM 34.6250 -119.3661 154° Southeast 329 379 16,900 -2,032 Descending Los Angeles Center
Fri 10:29:18 PM 34.5972 -119.3472 151° Southeast 334 384 15,800 -2,432 Descending Los Angeles Center
Fri 10:29:22 PM 34.5797 -119.3361 152° Southeast 324 373 15,400 -2,656 Descending Los Angeles Center
Fri 10:30:19 PM 34.5211 -119.2972 151° Southeast 317 365 13,100 -2,900 Descending Los Angeles Center
Fri 10:30:22 PM 34.5036 -119.2850 150° Southeast 302 348 12,500 -3,097 Descending Los Angeles Center
Fri 10:31:21 PM 34.4339 -119.2403 152° Southeast 302 348 9,900 -2,557 Descending Los Angeles Center
Fri 10:31:23 PM 34.4333 -119.2397 140° Southeast 293 337 9,900 -2,613 Level Los Angeles Center
Fri 10:32:23 PM 34.3653 -119.1953 152° Southeast 290 334 7,200 -2,579 Descending Los Angeles Center
Fri 10:33:24 PM 34.2975 -119.1533 153° Southeast 261 300 4,700 -2,516 Descending Los Angeles Center
Fri 10:33:25 PM 34.2989 -119.1542 334° Northwest 279 321 4,600 -1,967 Descending Los Angeles Center
Fri 10:34:25 PM 34.2372 -119.1156 153° Southeast 226 260 2,700 -1,161 Descending Los Angeles Center
Fri 10:34:27 PM 34.2289 -119.1128 165° South 268 308 3,400 -1,200 Climbing Los Angeles Center
Fri 10:35:25 PM 34.1911 -119.0836 147° Southeast 183 211 1,500 -1,210 Descending Los Angeles Center
Fri 10:36:26 PM 34.2011 -119.0414 74° East 147 169 1,000 -492 Descending Los Angeles Center
Fri 10:38:00 PM 34.2000 -119.0833 270° West  Level FlightAware Approximate
Fri 10:45:00 PM 34.2137 -119.0944 270° West  Level Estimated

Login

Don't have an account? Register now (free) for customized features, flight alerts, and more!